createdAt,value
2022-11-26T00:00:57.237Z,4.60
2022-11-26T00:03:33.104Z,5.03
2022-11-26T00:06:05.493Z,4.55
2022-11-26T00:08:52.478Z,5.10
2022-11-26T00:11:24.471Z,4.25
2022-11-26T00:13:56.560Z,4.40
2022-11-26T00:16:30.517Z,4.07
2022-11-26T00:19:02.823Z,4.78
2022-11-26T00:21:38.035Z,4.10
2022-11-26T00:24:27.747Z,4.55
2022-11-26T00:27:00.340Z,4.95
2022-11-26T00:29:32.277Z,6.25
2022-11-26T00:32:05.942Z,4.22
2022-11-26T00:34:46.742Z,4.78
2022-11-26T00:37:24.738Z,4.22
2022-11-26T00:39:59.346Z,4.22
2022-11-26T00:42:32.684Z,4.22
2022-11-26T00:45:14.887Z,4.25
2022-11-26T00:47:50.049Z,3.95
2022-11-26T00:50:26.243Z,3.20
2022-11-26T00:52:58.379Z,4.20
2022-11-26T00:55:43.889Z,4.47
2022-11-26T00:58:27.715Z,3.63
2022-11-26T01:01:00.831Z,4.95
2022-11-26T01:03:33.005Z,4.60
2022-11-26T01:06:05.201Z,4.43
2022-11-26T01:08:44.704Z,4.70
2022-11-26T01:11:21.031Z,3.95
2022-11-26T01:13:55.268Z,3.90
2022-11-26T01:16:35.279Z,3.50
2022-11-26T01:19:12.748Z,4.03
2022-11-26T01:21:46.194Z,4.15
2022-11-26T01:24:18.214Z,4.10
2022-11-26T01:26:50.482Z,4.15
2022-11-26T01:29:22.405Z,5.18
2022-11-26T01:31:54.461Z,3.90
2022-11-26T01:34:26.559Z,5.10
2022-11-26T01:36:58.670Z,4.80
2022-11-26T01:39:30.593Z,4.47
2022-11-26T01:42:08.426Z,4.82
2022-11-26T01:45:00.168Z,4.38
2022-11-26T01:47:32.127Z,4.63
2022-11-26T01:50:29.552Z,4.75
2022-11-26T01:53:41.171Z,4.82
2022-11-26T01:56:26.378Z,4.88
2022-11-26T01:59:12.705Z,4.88
2022-11-26T02:01:56.526Z,4.60
2022-11-26T02:04:56.418Z,3.70
2022-11-26T02:07:39.223Z,3.95
2022-11-26T02:10:13.236Z,4.30
2022-11-26T02:12:45.824Z,4.15
2022-11-26T02:15:17.928Z,4.40
2022-11-26T02:17:58.042Z,5.10
2022-11-26T02:20:53.633Z,4.38
2022-11-26T02:24:09.386Z,4.88
2022-11-26T02:27:21.070Z,4.05
2022-11-26T02:30:14.863Z,4.63
2022-11-26T02:33:21.402Z,4.65
2022-11-26T02:36:09.854Z,4.00
2022-11-26T02:38:47.582Z,4.80
2022-11-26T02:41:20.612Z,4.40
2022-11-26T02:43:52.472Z,4.97
2022-11-26T02:46:24.792Z,4.63
2022-11-26T02:48:58.240Z,4.00
2022-11-26T02:51:34.682Z,4.82
2022-11-26T02:54:08.663Z,4.25
2022-11-26T02:56:42.711Z,4.30
2022-11-26T02:59:15.122Z,4.72
2022-11-26T03:02:15.996Z,3.92
2022-11-26T03:04:58.102Z,4.75
2022-11-26T03:07:32.489Z,4.05
2022-11-26T03:10:06.624Z,3.53
2022-11-26T03:12:39.110Z,4.40
2022-11-26T03:15:14.851Z,4.07
2022-11-26T03:17:47.031Z,3.60
2022-11-26T03:20:19.366Z,5.10
2022-11-26T03:22:51.359Z,4.07
2022-11-26T03:25:23.324Z,3.80
2022-11-26T03:27:55.384Z,3.90
2022-11-26T03:30:27.424Z,3.78
2022-11-26T03:32:59.408Z,4.53
2022-11-26T03:35:31.358Z,4.35
2022-11-26T03:38:03.256Z,3.97
2022-11-26T03:40:35.252Z,4.13
2022-11-26T03:43:07.346Z,4.38
2022-11-26T03:45:39.268Z,5.00
2022-11-26T03:48:11.370Z,5.15
2022-11-26T03:50:43.404Z,4.85
2022-11-26T03:53:15.366Z,4.25
2022-11-26T03:55:48.495Z,4.28
2022-11-26T03:58:20.421Z,4.70
2022-11-26T04:00:52.338Z,4.78
2022-11-26T04:03:24.431Z,4.57
2022-11-26T04:05:56.662Z,4.05
2022-11-26T04:08:28.538Z,4.60
2022-11-26T04:11:00.767Z,4.70
2022-11-26T04:13:32.632Z,4.35
2022-11-26T04:16:05.055Z,4.88
2022-11-26T04:18:37.452Z,4.13
2022-11-26T04:21:10.023Z,4.38
2022-11-26T04:23:41.962Z,5.20
2022-11-26T04:26:13.981Z,4.78
2022-11-26T04:28:46.924Z,5.65
2022-11-26T04:31:19.617Z,5.20
2022-11-26T04:33:51.677Z,5.90
2022-11-26T04:36:23.612Z,4.97
2022-11-26T04:38:55.568Z,4.72
2022-11-26T04:41:28.427Z,5.35
2022-11-26T04:44:00.347Z,4.90
2022-11-26T04:46:32.379Z,5.45
2022-11-26T04:49:04.508Z,5.30
2022-11-26T04:51:36.458Z,4.82
2022-11-26T04:54:12.710Z,6.38
2022-11-26T04:56:45.285Z,5.80
2022-11-26T04:59:17.353Z,5.47
2022-11-26T05:01:49.320Z,5.18
2022-11-26T05:04:21.266Z,6.22
2022-11-26T05:06:53.231Z,5.63
2022-11-26T05:09:25.846Z,6.10
2022-11-26T05:11:57.845Z,6.90
2022-11-26T05:14:29.685Z,5.70
2022-11-26T05:17:01.776Z,6.10
2022-11-26T05:19:34.202Z,6.50
2022-11-26T05:22:06.299Z,6.45
2022-11-26T05:24:38.492Z,6.03
2022-11-26T05:27:10.541Z,6.28
2022-11-26T05:29:42.544Z,6.93
2022-11-26T05:32:14.547Z,6.18
2022-11-26T05:34:46.982Z,6.47
2022-11-26T05:37:18.990Z,7.00
2022-11-26T05:39:51.369Z,6.82
2022-11-26T05:42:23.515Z,6.57
2022-11-26T05:44:55.475Z,6.38
2022-11-26T05:47:27.514Z,7.20
2022-11-26T05:49:59.582Z,7.43
2022-11-26T05:52:31.906Z,7.95
2022-11-26T05:55:04.352Z,6.03
2022-11-26T05:57:46.468Z,5.75
2022-11-26T06:00:19.080Z,6.55
2022-11-26T06:02:51.378Z,5.70
2022-11-26T06:05:23.577Z,6.38
2022-11-26T06:07:55.653Z,7.10
2022-11-26T06:10:27.740Z,6.72
2022-11-26T06:12:59.905Z,6.13
2022-11-26T06:15:31.957Z,6.53
2022-11-26T06:18:04.012Z,6.30
2022-11-26T06:20:37.229Z,6.30
2022-11-26T06:23:09.242Z,5.72
2022-11-26T06:25:42.075Z,5.93
2022-11-26T06:28:14.060Z,6.60
2022-11-26T06:30:46.503Z,5.32
2022-11-26T06:33:18.592Z,5.80
2022-11-26T06:35:50.542Z,6.07
2022-11-26T06:38:22.523Z,7.57
2022-11-26T06:41:03.456Z,7.65
2022-11-26T06:43:38.266Z,6.00
2022-11-26T06:46:11.267Z,6.47
2022-11-26T06:48:43.774Z,5.60
2022-11-26T06:51:16.930Z,5.57
2022-11-26T06:53:51.481Z,5.43
2022-11-26T06:56:23.831Z,6.57
2022-11-26T06:58:56.335Z,6.10
2022-11-26T07:01:28.349Z,6.18
2022-11-26T07:04:01.016Z,6.63
2022-11-26T07:06:33.633Z,7.10
2022-11-26T07:09:09.340Z,6.63
2022-11-26T07:11:42.579Z,7.13
2022-11-26T07:14:14.860Z,5.45
2022-11-26T07:16:46.809Z,5.75
2022-11-26T07:19:19.270Z,5.85
2022-11-26T07:21:51.220Z,6.32
2022-11-26T07:24:23.276Z,5.65
2022-11-26T07:26:56.246Z,5.97
2022-11-26T07:29:28.439Z,6.15
2022-11-26T07:32:00.587Z,6.30
2022-11-26T07:34:32.734Z,6.00
2022-11-26T07:37:04.871Z,5.80
2022-11-26T07:39:36.929Z,7.28
2022-11-26T07:42:08.876Z,6.57
2022-11-26T07:44:41.174Z,7.35
2022-11-26T07:47:13.166Z,7.30
2022-11-26T07:49:45.298Z,8.45
2022-11-26T07:52:17.395Z,6.82
2022-11-26T07:54:49.507Z,6.90
2022-11-26T07:57:22.915Z,7.53
2022-11-26T07:59:56.220Z,6.90
2022-11-26T08:02:28.274Z,7.78
2022-11-26T08:05:00.253Z,9.68
2022-11-26T08:07:32.640Z,9.90
2022-11-26T08:10:06.564Z,9.30
2022-11-26T08:12:39.048Z,8.77
2022-11-26T08:15:11.352Z,8.55
2022-11-26T08:17:43.715Z,8.57
2022-11-26T08:20:16.141Z,9.73
2022-11-26T08:22:48.587Z,8.45
2022-11-26T08:25:20.972Z,8.98
2022-11-26T08:27:53.463Z,8.55
2022-11-26T08:30:25.700Z,9.32
2022-11-26T08:32:57.749Z,9.05
2022-11-26T08:35:51.146Z,9.10
2022-11-26T08:38:42.007Z,7.90
2022-11-26T08:41:14.264Z,8.63
2022-11-26T08:46:41.811Z,8.10
2022-11-26T08:49:15.361Z,8.23
2022-11-26T08:51:48.024Z,8.75
2022-11-26T08:54:20.139Z,9.30
2022-11-26T08:56:52.234Z,9.48
2022-11-26T08:59:25.435Z,11.30
2022-11-26T09:01:57.794Z,10.13
2022-11-26T09:04:29.968Z,10.38
2022-11-26T09:07:02.812Z,11.98
2022-11-26T09:09:34.969Z,10.65
2022-11-26T09:12:08.079Z,11.20
2022-11-26T09:14:42.324Z,10.55
2022-11-26T09:17:14.817Z,12.25
2022-11-26T09:19:46.969Z,9.65
2022-11-26T09:22:19.316Z,10.25
2022-11-26T09:24:51.375Z,10.43
2022-11-26T09:27:23.631Z,7.82
2022-11-26T09:29:56.515Z,9.40
2022-11-26T09:32:33.876Z,7.00
2022-11-26T09:35:06.956Z,9.07
2022-11-26T09:37:39.702Z,8.65
2022-11-26T09:40:19.254Z,9.32
2022-11-26T09:43:07.225Z,8.52
2022-11-26T09:46:01.264Z,9.27
2022-11-26T09:48:35.153Z,9.38
2022-11-26T09:51:13.657Z,8.18
2022-11-26T09:53:50.094Z,7.88
2022-11-26T09:56:27.624Z,8.52
2022-11-26T09:59:05.549Z,7.13
2022-11-26T10:01:43.122Z,8.65
2022-11-26T10:04:33.309Z,9.57
2022-11-26T10:07:47.004Z,8.65
2022-11-26T10:11:03.631Z,7.97
2022-11-26T10:14:02.624Z,8.90
2022-11-26T10:17:14.114Z,10.10
2022-11-26T10:20:42.282Z,9.85
2022-11-26T10:24:01.606Z,9.43
2022-11-26T10:26:42.148Z,8.20
2022-11-26T10:29:24.666Z,7.68
2022-11-26T10:32:35.017Z,8.95
2022-11-26T10:35:29.782Z,7.93
2022-11-26T10:38:02.853Z,8.90
2022-11-26T10:40:35.824Z,8.27
2022-11-26T10:43:11.128Z,8.90
2022-11-26T10:45:56.850Z,8.52
2022-11-26T10:48:31.149Z,9.15
2022-11-26T10:51:15.921Z,7.80
2022-11-26T10:53:57.692Z,8.07
2022-11-26T10:56:45.284Z,7.60
2022-11-26T10:59:31.537Z,9.38
2022-11-26T11:02:23.108Z,7.97
2022-11-26T11:05:04.321Z,7.45
2022-11-26T11:07:41.981Z,6.28
2022-11-26T11:10:26.343Z,6.35
2022-11-26T11:13:12.163Z,6.03
2022-11-26T11:15:44.429Z,5.55
2022-11-26T11:18:20.309Z,6.10
2022-11-26T11:21:01.122Z,5.93
2022-11-26T11:24:07.135Z,7.50
2022-11-26T11:26:50.951Z,5.50
2022-11-26T11:29:32.473Z,5.90
2022-11-26T11:32:27.582Z,7.03
2022-11-26T11:35:32.877Z,5.25
2022-11-26T11:38:05.368Z,5.10
2022-11-26T11:40:53.019Z,4.45
2022-11-26T11:43:26.767Z,4.40
2022-11-26T11:46:17.617Z,4.40
2022-11-26T11:49:15.252Z,4.82
2022-11-26T11:52:25.763Z,5.30
2022-11-26T11:55:35.639Z,4.85
2022-11-26T11:58:38.789Z,4.20
2022-11-26T12:01:42.697Z,4.22
2022-11-26T12:04:53.733Z,3.97
2022-11-26T12:08:01.158Z,4.88
2022-11-26T12:11:21.051Z,4.15
2022-11-26T12:14:18.014Z,3.50
2022-11-26T12:17:21.081Z,4.95
2022-11-26T12:20:17.416Z,5.07
2022-11-26T12:23:39.918Z,5.57
2022-11-26T12:26:53.151Z,5.95
2022-11-26T12:29:36.315Z,5.93
2022-11-26T12:32:42.894Z,5.80
2022-11-26T12:35:43.220Z,6.70
2022-11-26T12:38:29.631Z,5.90
2022-11-26T12:41:27.891Z,5.47
2022-11-26T12:44:22.019Z,8.05
2022-11-26T12:47:08.702Z,6.40
2022-11-26T12:50:15.655Z,5.13
2022-11-26T12:53:24.810Z,5.80
2022-11-26T12:56:54.404Z,5.85
2022-11-26T12:59:45.831Z,5.15
2022-11-26T13:02:29.695Z,5.32
2022-11-26T13:05:05.727Z,5.47
2022-11-26T13:08:19.733Z,5.28
2022-11-26T13:11:36.647Z,5.45
2022-11-26T13:14:41.465Z,5.38
2022-11-26T13:17:47.473Z,5.40
2022-11-26T13:20:39.011Z,4.80
2022-11-26T13:23:32.834Z,5.38
2022-11-26T13:26:54.385Z,5.30
2022-11-26T13:30:05.542Z,5.57
2022-11-26T13:33:22.227Z,5.28
2022-11-26T13:36:32.724Z,6.50
2022-11-26T13:40:10.060Z,5.60
2022-11-26T13:43:16.915Z,4.82
2022-11-26T13:46:21.857Z,5.13
2022-11-26T13:49:14.601Z,4.53
2022-11-26T13:52:47.337Z,4.18
2022-11-26T13:55:42.138Z,4.43
2022-11-26T13:58:23.100Z,5.00
2022-11-26T14:01:28.687Z,4.78
2022-11-26T14:04:13.089Z,5.07
2022-11-26T14:07:04.985Z,4.35
2022-11-26T14:09:55.448Z,5.03
2022-11-26T14:13:09.466Z,4.40
2022-11-26T14:15:43.453Z,4.72
2022-11-26T14:18:53.519Z,4.95
2022-11-26T14:21:30.758Z,5.00
2022-11-26T14:24:51.523Z,6.43
2022-11-26T14:27:31.331Z,6.30
2022-11-26T14:30:06.538Z,5.25
2022-11-26T14:33:12.685Z,6.88
2022-11-26T14:35:57.419Z,5.72
2022-11-26T14:38:33.161Z,5.60
2022-11-26T14:41:07.563Z,6.00
2022-11-26T14:43:39.877Z,7.00
2022-11-26T14:46:17.323Z,8.15
2022-11-26T14:48:55.044Z,7.40
2022-11-26T14:51:32.666Z,7.20
2022-11-26T14:54:12.805Z,8.07
2022-11-26T14:56:50.114Z,8.25
2022-11-26T14:59:22.307Z,7.20
2022-11-26T15:01:55.517Z,6.45
2022-11-26T15:04:39.115Z,7.47
2022-11-26T15:07:39.749Z,10.18
2022-11-26T15:10:15.154Z,8.73
2022-11-26T15:12:52.708Z,7.95
2022-11-26T15:15:27.143Z,7.45
2022-11-26T15:18:10.742Z,7.90
2022-11-26T15:20:52.785Z,8.40
2022-11-26T15:23:33.242Z,8.38
2022-11-26T15:26:16.962Z,8.60
2022-11-26T15:28:51.652Z,8.52
2022-11-26T15:31:24.265Z,8.98
2022-11-26T15:34:14.057Z,8.82
2022-11-26T15:36:46.438Z,9.68
2022-11-26T15:39:45.303Z,9.40
2022-11-26T15:42:32.433Z,9.77
2022-11-26T15:45:06.002Z,10.10
2022-11-26T15:47:54.272Z,9.23
2022-11-26T15:50:32.294Z,9.55
2022-11-26T15:53:13.926Z,9.60
2022-11-26T15:55:50.587Z,9.80
2022-11-26T15:58:29.059Z,9.45
2022-11-26T16:01:10.937Z,9.40
2022-11-26T16:03:50.194Z,11.35
2022-11-26T16:07:27.820Z,11.98
2022-11-26T16:10:17.358Z,10.13
2022-11-26T16:13:28.305Z,9.40
2022-11-26T16:16:10.096Z,10.82
2022-11-26T16:18:59.781Z,11.60
2022-11-26T16:21:35.211Z,11.85
2022-11-26T16:24:30.022Z,11.45
2022-11-26T16:27:28.079Z,11.35
2022-11-26T16:30:15.534Z,11.88
2022-11-26T16:32:48.150Z,10.90
2022-11-26T16:35:45.211Z,10.88
2022-11-26T16:38:23.640Z,10.88
2022-11-26T16:40:57.483Z,12.30
2022-11-26T16:43:29.871Z,12.35
2022-11-26T16:46:02.256Z,12.30
2022-11-26T16:48:36.568Z,11.13
2022-11-26T16:51:10.065Z,12.07
2022-11-26T16:53:43.045Z,11.82
2022-11-26T16:56:38.186Z,11.98
2022-11-26T16:59:26.354Z,12.75
2022-11-26T17:01:59.607Z,12.20
2022-11-26T17:04:32.539Z,11.20
2022-11-26T17:07:04.819Z,11.57
2022-11-26T17:09:36.938Z,11.20
2022-11-26T17:12:35.691Z,12.20
2022-11-26T17:15:08.242Z,12.32
2022-11-26T17:17:40.763Z,12.88
2022-11-26T17:20:23.568Z,12.80
2022-11-26T17:22:56.839Z,12.50
2022-11-26T17:25:29.177Z,12.15
2022-11-26T17:28:01.296Z,12.18
2022-11-26T17:30:33.937Z,12.75
2022-11-26T17:33:07.092Z,19.67
2022-11-26T17:35:40.102Z,19.33
2022-11-26T17:38:19.802Z,23.55
2022-11-26T17:40:52.605Z,29.60
2022-11-26T17:43:24.772Z,21.70
2022-11-26T17:45:57.834Z,18.67
2022-11-26T17:48:31.186Z,16.10
2022-11-26T17:51:03.568Z,15.77
2022-11-26T17:53:35.996Z,16.15
2022-11-26T17:56:16.613Z,15.63
2022-11-26T17:58:52.091Z,16.00
2022-11-26T18:01:25.145Z,15.88
2022-11-26T18:03:57.698Z,13.95
2022-11-26T18:06:33.521Z,15.73
2022-11-26T18:09:25.578Z,13.70
2022-11-26T18:11:58.184Z,14.10
2022-11-26T18:14:34.523Z,15.27
2022-11-26T18:17:12.499Z,13.43
2022-11-26T18:19:45.862Z,13.07
2022-11-26T18:22:23.991Z,14.63
2022-11-26T18:24:58.277Z,14.43
2022-11-26T18:27:31.660Z,15.48
2022-11-26T18:30:05.846Z,15.27
2022-11-26T18:32:39.610Z,14.85
2022-11-26T18:35:13.209Z,14.60
2022-11-26T18:37:46.201Z,16.83
2022-11-26T18:40:18.842Z,15.57
2022-11-26T18:42:53.004Z,16.90
2022-11-26T18:45:25.457Z,14.65
2022-11-26T18:47:58.235Z,15.60
2022-11-26T18:50:31.241Z,15.70
2022-11-26T18:53:03.791Z,16.80
2022-11-26T18:55:39.455Z,14.40
2022-11-26T18:58:14.639Z,15.15
2022-11-26T19:00:50.984Z,15.13
2022-11-26T19:03:26.733Z,14.63
2022-11-26T19:06:00.137Z,16.52
2022-11-26T19:08:39.488Z,17.48
2022-11-26T19:11:17.465Z,16.77
2022-11-26T19:13:52.068Z,17.27
2022-11-26T19:16:29.257Z,16.83
2022-11-26T19:19:03.069Z,16.65
2022-11-26T19:21:36.061Z,18.63
2022-11-26T19:24:09.178Z,18.83
2022-11-26T19:27:01.111Z,17.08
2022-11-26T19:29:34.054Z,18.50
2022-11-26T19:32:06.683Z,18.30
2022-11-26T19:34:40.173Z,16.88
2022-11-26T19:37:14.186Z,17.90
2022-11-26T19:39:47.013Z,19.30
2022-11-26T19:42:20.770Z,18.77
2022-11-26T19:44:53.347Z,19.13
2022-11-26T19:47:25.597Z,18.33
2022-11-26T19:49:59.177Z,19.52
2022-11-26T19:52:33.641Z,21.13
2022-11-26T19:55:06.433Z,19.42
2022-11-26T19:57:39.575Z,18.48
2022-11-26T20:00:12.730Z,19.10
2022-11-26T20:02:45.642Z,21.55
2022-11-26T20:05:18.382Z,20.38
2022-11-26T20:07:51.237Z,20.42
2022-11-26T20:10:24.982Z,20.45
2022-11-26T20:12:57.601Z,20.90
2022-11-26T20:15:30.768Z,24.95
2022-11-26T20:18:04.415Z,25.80
2022-11-26T20:20:37.799Z,28.60
2022-11-26T20:23:11.586Z,26.15
2022-11-26T20:25:44.276Z,27.85
2022-11-26T20:28:16.862Z,25.48
2022-11-26T20:30:50.945Z,24.63
2022-11-26T20:33:24.415Z,26.00
2022-11-26T20:35:57.751Z,24.98
2022-11-26T20:38:31.145Z,23.77
2022-11-26T20:41:09.898Z,24.48
2022-11-26T20:43:45.821Z,20.50
2022-11-26T20:46:22.344Z,19.88
2022-11-26T20:48:56.612Z,21.45
2022-11-26T20:51:29.465Z,19.20
2022-11-26T20:54:03.071Z,20.23
2022-11-26T20:56:38.066Z,18.92
2022-11-26T20:59:11.664Z,20.13
2022-11-26T21:01:44.772Z,17.58
2022-11-26T21:04:17.580Z,19.95
2022-11-26T21:06:50.688Z,17.45
2022-11-26T21:09:26.234Z,18.50
2022-11-26T21:11:59.572Z,17.38
2022-11-26T21:14:32.781Z,18.38
2022-11-26T21:17:09.976Z,18.15
2022-11-26T21:19:44.624Z,19.05
2022-11-26T21:22:19.339Z,21.63
2022-11-26T21:24:56.772Z,18.92
2022-11-26T21:27:32.614Z,21.27
2022-11-26T21:30:07.239Z,23.13
2022-11-26T21:32:41.177Z,21.35
2022-11-26T21:35:14.392Z,21.10
2022-11-26T21:37:47.938Z,20.10
2022-11-26T21:40:20.885Z,18.52
2022-11-26T21:42:53.879Z,18.45
2022-11-26T21:45:27.943Z,19.52
2022-11-26T21:48:01.201Z,19.08
2022-11-26T21:50:34.526Z,17.25
2022-11-26T21:53:08.554Z,17.65
2022-11-26T21:55:41.027Z,16.83
2022-11-26T21:58:13.298Z,18.45
2022-11-26T22:00:45.497Z,17.40
2022-11-26T22:03:18.330Z,18.67
2022-11-26T22:05:50.881Z,17.05
2022-11-26T22:08:23.783Z,19.45
2022-11-26T22:10:57.150Z,18.40
2022-11-26T22:13:30.465Z,18.38
2022-11-26T22:16:04.372Z,17.35
2022-11-26T22:18:41.606Z,18.92
2022-11-26T22:21:27.916Z,21.40
2022-11-26T22:24:04.926Z,19.90
2022-11-26T22:26:42.115Z,18.92
2022-11-26T22:29:17.926Z,19.33
2022-11-26T22:31:51.321Z,21.52
2022-11-26T22:34:24.993Z,20.55
2022-11-26T22:36:58.851Z,22.50
2022-11-26T22:39:31.886Z,19.80
2022-11-26T22:42:04.480Z,19.55
2022-11-26T22:44:37.991Z,21.17
2022-11-26T22:47:10.876Z,21.20
2022-11-26T22:49:44.650Z,21.35
2022-11-26T22:52:18.360Z,19.23
2022-11-26T22:54:51.188Z,17.73
2022-11-26T22:57:25.484Z,19.38
2022-11-26T22:59:57.841Z,17.50
2022-11-26T23:02:30.014Z,16.45
2022-11-26T23:05:02.229Z,17.52
2022-11-26T23:07:34.726Z,17.63
2022-11-26T23:10:08.008Z,17.50
2022-11-26T23:12:40.770Z,16.67
2022-11-26T23:15:13.002Z,17.95
2022-11-26T23:17:45.274Z,19.17
2022-11-26T23:20:17.313Z,16.35
2022-11-26T23:22:49.494Z,16.27
2022-11-26T23:25:21.526Z,16.48
2022-11-26T23:27:53.598Z,18.13
2022-11-26T23:30:25.799Z,16.50
2022-11-26T23:32:58.077Z,17.95
2022-11-26T23:35:30.108Z,17.65
2022-11-26T23:38:02.822Z,18.33
2022-11-26T23:40:34.933Z,17.48
2022-11-26T23:43:08.700Z,17.40
2022-11-26T23:45:41.266Z,19.75
2022-11-26T23:48:13.586Z,18.08
2022-11-26T23:50:46.091Z,18.35
2022-11-26T23:53:18.356Z,18.92
2022-11-26T23:55:50.600Z,22.15
2022-11-26T23:58:22.855Z,18.00
